sensor_id;sensor_type;location;lat;lon;timestamp;P1;durP1;ratioP1;P2;durP2;ratioP2
12603;SDS011;6367;52.508;13.284;2023-01-19T00:02:22;12.23;;;9.70;;
12603;SDS011;6367;52.508;13.284;2023-01-19T00:04:48;16.10;;;9.60;;
12603;SDS011;6367;52.508;13.284;2023-01-19T00:07:14;17.87;;;10.00;;
12603;SDS011;6367;52.508;13.284;2023-01-19T00:09:40;16.20;;;10.57;;
12603;SDS011;6367;52.508;13.284;2023-01-19T00:12:06;18.53;;;10.40;;
12603;SDS011;6367;52.508;13.284;2023-01-19T00:14:31;14.33;;;9.40;;
12603;SDS011;6367;52.508;13.284;2023-01-19T00:16:57;14.37;;;9.70;;
12603;SDS011;6367;52.508;13.284;2023-01-19T00:19:25;18.55;;;10.60;;
12603;SDS011;6367;52.508;13.284;2023-01-19T00:21:51;13.50;;;8.57;;
12603;SDS011;6367;52.508;13.284;2023-01-19T00:24:17;13.40;;;9.37;;
12603;SDS011;6367;52.508;13.284;2023-01-19T00:26:43;15.00;;;9.80;;
12603;SDS011;6367;52.508;13.284;2023-01-19T00:29:09;12.60;;;9.33;;
12603;SDS011;6367;52.508;13.284;2023-01-19T00:31:35;17.25;;;9.63;;
12603;SDS011;6367;52.508;13.284;2023-01-19T00:34:02;14.52;;;9.30;;
12603;SDS011;6367;52.508;13.284;2023-01-19T00:36:29;15.88;;;9.25;;
12603;SDS011;6367;52.508;13.284;2023-01-19T00:38:55;14.00;;;9.07;;
12603;SDS011;6367;52.508;13.284;2023-01-19T00:41:21;15.80;;;10.50;;
12603;SDS011;6367;52.508;13.284;2023-01-19T00:44:05;14.15;;;10.48;;
12603;SDS011;6367;52.508;13.284;2023-01-19T00:46:31;14.38;;;9.35;;
12603;SDS011;6367;52.508;13.284;2023-01-19T00:48:57;16.30;;;10.33;;
12603;SDS011;6367;52.508;13.284;2023-01-19T00:51:22;13.33;;;9.87;;
12603;SDS011;6367;52.508;13.284;2023-01-19T00:53:49;17.05;;;11.05;;
12603;SDS011;6367;52.508;13.284;2023-01-19T00:56:15;13.20;;;9.50;;
12603;SDS011;6367;52.508;13.284;2023-01-19T00:58:41;14.30;;;10.50;;
12603;SDS011;6367;52.508;13.284;2023-01-19T01:01:07;15.70;;;10.20;;
12603;SDS011;6367;52.508;13.284;2023-01-19T01:03:33;13.70;;;10.30;;
12603;SDS011;6367;52.508;13.284;2023-01-19T01:05:59;14.10;;;9.13;;
12603;SDS011;6367;52.508;13.284;2023-01-19T01:08:25;15.40;;;10.07;;
12603;SDS011;6367;52.508;13.284;2023-01-19T01:10:50;11.50;;;10.10;;
12603;SDS011;6367;52.508;13.284;2023-01-19T01:13:16;19.63;;;9.33;;
12603;SDS011;6367;52.508;13.284;2023-01-19T01:15:42;16.30;;;10.37;;
12603;SDS011;6367;52.508;13.284;2023-01-19T01:18:08;15.03;;;10.40;;
12603;SDS011;6367;52.508;13.284;2023-01-19T01:20:33;15.07;;;9.88;;
12603;SDS011;6367;52.508;13.284;2023-01-19T01:23:01;14.23;;;10.00;;
12603;SDS011;6367;52.508;13.284;2023-01-19T01:25:27;16.10;;;11.70;;
12603;SDS011;6367;52.508;13.284;2023-01-19T01:27:55;16.75;;;10.63;;
12603;SDS011;6367;52.508;13.284;2023-01-19T01:30:21;15.00;;;11.60;;
12603;SDS011;6367;52.508;13.284;2023-01-19T01:32:46;15.85;;;10.80;;
12603;SDS011;6367;52.508;13.284;2023-01-19T01:35:13;16.55;;;11.38;;
12603;SDS011;6367;52.508;13.284;2023-01-19T01:37:39;18.30;;;11.38;;
12603;SDS011;6367;52.508;13.284;2023-01-19T01:40:06;15.38;;;10.52;;
12603;SDS011;6367;52.508;13.284;2023-01-19T01:42:34;14.40;;;10.80;;
12603;SDS011;6367;52.508;13.284;2023-01-19T01:45:00;16.70;;;10.10;;
12603;SDS011;6367;52.508;13.284;2023-01-19T01:47:41;16.95;;;10.60;;
12603;SDS011;6367;52.508;13.284;2023-01-19T01:50:14;15.57;;;11.55;;
12603;SDS011;6367;52.508;13.284;2023-01-19T01:52:45;13.80;;;11.05;;
12603;SDS011;6367;52.508;13.284;2023-01-19T01:55:15;14.27;;;10.90;;
12603;SDS011;6367;52.508;13.284;2023-01-19T01:57:43;13.93;;;10.13;;
12603;SDS011;6367;52.508;13.284;2023-01-19T02:00:11;19.58;;;11.77;;
12603;SDS011;6367;52.508;13.284;2023-01-19T02:02:38;14.40;;;10.30;;
12603;SDS011;6367;52.508;13.284;2023-01-19T02:05:20;16.90;;;11.07;;
12603;SDS011;6367;52.508;13.284;2023-01-19T02:07:54;18.27;;;11.10;;
12603;SDS011;6367;52.508;13.284;2023-01-19T02:10:46;16.02;;;9.93;;
12603;SDS011;6367;52.508;13.284;2023-01-19T02:13:32;16.73;;;10.35;;
12603;SDS011;6367;52.508;13.284;2023-01-19T02:16:02;14.25;;;9.73;;
12603;SDS011;6367;52.508;13.284;2023-01-19T02:18:31;19.67;;;11.52;;
12603;SDS011;6367;52.508;13.284;2023-01-19T02:23:40;14.73;;;11.83;;
12603;SDS011;6367;52.508;13.284;2023-01-19T02:26:07;17.02;;;10.60;;
12603;SDS011;6367;52.508;13.284;2023-01-19T02:28:35;19.38;;;11.18;;
12603;SDS011;6367;52.508;13.284;2023-01-19T02:31:05;16.77;;;10.95;;
12603;SDS011;6367;52.508;13.284;2023-01-19T02:33:31;15.80;;;9.97;;
12603;SDS011;6367;52.508;13.284;2023-01-19T02:35:56;17.50;;;10.37;;
12603;SDS011;6367;52.508;13.284;2023-01-19T02:38:24;16.30;;;11.10;;
12603;SDS011;6367;52.508;13.284;2023-01-19T02:40:52;13.30;;;10.65;;
12603;SDS011;6367;52.508;13.284;2023-01-19T02:43:21;16.10;;;11.45;;
12603;SDS011;6367;52.508;13.284;2023-01-19T02:45:48;14.77;;;10.50;;
12603;SDS011;6367;52.508;13.284;2023-01-19T02:48:14;13.23;;;9.80;;
12603;SDS011;6367;52.508;13.284;2023-01-19T02:50:43;14.15;;;10.93;;
12603;SDS011;6367;52.508;13.284;2023-01-19T02:55:46;17.13;;;11.40;;
12603;SDS011;6367;52.508;13.284;2023-01-19T02:58:24;17.95;;;11.30;;
12603;SDS011;6367;52.508;13.284;2023-01-19T03:12:39;13.95;;;10.00;;
12603;SDS011;6367;52.508;13.284;2023-01-19T03:15:29;16.90;;;11.80;;
12603;SDS011;6367;52.508;13.284;2023-01-19T03:18:01;17.45;;;11.13;;
12603;SDS011;6367;52.508;13.284;2023-01-19T03:20:30;17.45;;;11.25;;
12603;SDS011;6367;52.508;13.284;2023-01-19T03:22:59;15.93;;;11.55;;
12603;SDS011;6367;52.508;13.284;2023-01-19T03:25:29;14.52;;;10.48;;
12603;SDS011;6367;52.508;13.284;2023-01-19T03:27:59;16.90;;;11.10;;
12603;SDS011;6367;52.508;13.284;2023-01-19T03:30:27;16.65;;;10.85;;
12603;SDS011;6367;52.508;13.284;2023-01-19T03:32:58;19.58;;;11.90;;
12603;SDS011;6367;52.508;13.284;2023-01-19T03:35:30;18.95;;;11.45;;
12603;SDS011;6367;52.508;13.284;2023-01-19T03:37:59;24.48;;;12.27;;
12603;SDS011;6367;52.508;13.284;2023-01-19T03:40:29;14.93;;;10.73;;
12603;SDS011;6367;52.508;13.284;2023-01-19T03:42:57;18.63;;;10.80;;
12603;SDS011;6367;52.508;13.284;2023-01-19T03:45:24;16.75;;;11.32;;
12603;SDS011;6367;52.508;13.284;2023-01-19T03:47:51;19.88;;;13.27;;
12603;SDS011;6367;52.508;13.284;2023-01-19T03:50:25;15.85;;;11.57;;
12603;SDS011;6367;52.508;13.284;2023-01-19T03:53:07;18.20;;;12.18;;
12603;SDS011;6367;52.508;13.284;2023-01-19T03:55:35;18.00;;;12.13;;
12603;SDS011;6367;52.508;13.284;2023-01-19T03:58:03;18.52;;;10.65;;
12603;SDS011;6367;52.508;13.284;2023-01-19T04:00:29;17.17;;;11.80;;
12603;SDS011;6367;52.508;13.284;2023-01-19T04:02:55;19.35;;;11.82;;
12603;SDS011;6367;52.508;13.284;2023-01-19T04:05:21;17.30;;;11.53;;
12603;SDS011;6367;52.508;13.284;2023-01-19T04:07:48;21.95;;;13.73;;
12603;SDS011;6367;52.508;13.284;2023-01-19T04:10:15;17.27;;;11.48;;
12603;SDS011;6367;52.508;13.284;2023-01-19T04:12:41;22.42;;;12.85;;
12603;SDS011;6367;52.508;13.284;2023-01-19T04:15:07;17.20;;;12.27;;
12603;SDS011;6367;52.508;13.284;2023-01-19T04:17:33;17.33;;;12.33;;
12603;SDS011;6367;52.508;13.284;2023-01-19T04:19:58;18.80;;;12.50;;
12603;SDS011;6367;52.508;13.284;2023-01-19T04:22:24;18.60;;;12.13;;
12603;SDS011;6367;52.508;13.284;2023-01-19T04:24:50;18.70;;;12.67;;
12603;SDS011;6367;52.508;13.284;2023-01-19T04:27:16;20.53;;;14.17;;
12603;SDS011;6367;52.508;13.284;2023-01-19T04:29:42;20.02;;;13.00;;
12603;SDS011;6367;52.508;13.284;2023-01-19T04:32:07;19.77;;;13.63;;
12603;SDS011;6367;52.508;13.284;2023-01-19T04:34:33;22.10;;;13.17;;
12603;SDS011;6367;52.508;13.284;2023-01-19T04:36:59;18.60;;;13.43;;
12603;SDS011;6367;52.508;13.284;2023-01-19T04:39:24;17.13;;;12.77;;
12603;SDS011;6367;52.508;13.284;2023-01-19T04:41:51;20.90;;;12.60;;
12603;SDS011;6367;52.508;13.284;2023-01-19T04:44:17;22.63;;;13.37;;
12603;SDS011;6367;52.508;13.284;2023-01-19T04:46:43;19.60;;;13.00;;
12603;SDS011;6367;52.508;13.284;2023-01-19T04:49:08;18.77;;;12.33;;
12603;SDS011;6367;52.508;13.284;2023-01-19T04:51:35;18.20;;;13.15;;
12603;SDS011;6367;52.508;13.284;2023-01-19T04:54:01;17.95;;;12.50;;
12603;SDS011;6367;52.508;13.284;2023-01-19T04:56:28;17.40;;;12.52;;
12603;SDS011;6367;52.508;13.284;2023-01-19T04:58:53;18.40;;;12.60;;
12603;SDS011;6367;52.508;13.284;2023-01-19T05:01:19;18.93;;;13.23;;
12603;SDS011;6367;52.508;13.284;2023-01-19T05:03:45;21.77;;;12.07;;
12603;SDS011;6367;52.508;13.284;2023-01-19T05:06:13;19.52;;;12.48;;
12603;SDS011;6367;52.508;13.284;2023-01-19T05:08:39;19.90;;;12.07;;
12603;SDS011;6367;52.508;13.284;2023-01-19T05:11:05;18.17;;;14.07;;
12603;SDS011;6367;52.508;13.284;2023-01-19T05:13:30;20.40;;;13.60;;
12603;SDS011;6367;52.508;13.284;2023-01-19T05:15:57;14.45;;;11.07;;
12603;SDS011;6367;52.508;13.284;2023-01-19T05:18:23;16.37;;;12.40;;
12603;SDS011;6367;52.508;13.284;2023-01-19T05:20:48;17.43;;;12.63;;
12603;SDS011;6367;52.508;13.284;2023-01-19T05:23:14;17.47;;;12.87;;
12603;SDS011;6367;52.508;13.284;2023-01-19T05:25:41;19.70;;;12.90;;
12603;SDS011;6367;52.508;13.284;2023-01-19T05:28:07;18.63;;;12.13;;
12603;SDS011;6367;52.508;13.284;2023-01-19T05:30:33;18.23;;;12.60;;
12603;SDS011;6367;52.508;13.284;2023-01-19T05:32:58;16.03;;;11.83;;
12603;SDS011;6367;52.508;13.284;2023-01-19T05:35:24;16.73;;;11.93;;
12603;SDS011;6367;52.508;13.284;2023-01-19T05:37:50;18.90;;;13.60;;
12603;SDS011;6367;52.508;13.284;2023-01-19T05:40:15;17.93;;;12.23;;
12603;SDS011;6367;52.508;13.284;2023-01-19T05:42:41;20.33;;;13.00;;
12603;SDS011;6367;52.508;13.284;2023-01-19T05:45:07;16.23;;;11.97;;
12603;SDS011;6367;52.508;13.284;2023-01-19T05:47:33;18.75;;;12.25;;
12603;SDS011;6367;52.508;13.284;2023-01-19T05:49:58;18.13;;;11.73;;
12603;SDS011;6367;52.508;13.284;2023-01-19T05:52:24;18.43;;;12.17;;
12603;SDS011;6367;52.508;13.284;2023-01-19T05:54:50;18.27;;;11.77;;
12603;SDS011;6367;52.508;13.284;2023-01-19T05:57:16;16.75;;;11.70;;
12603;SDS011;6367;52.508;13.284;2023-01-19T05:59:42;17.10;;;12.82;;
12603;SDS011;6367;52.508;13.284;2023-01-19T06:02:09;16.25;;;12.40;;
12603;SDS011;6367;52.508;13.284;2023-01-19T06:04:34;19.63;;;12.60;;
12603;SDS011;6367;52.508;13.284;2023-01-19T06:07:00;16.03;;;11.10;;
12603;SDS011;6367;52.508;13.284;2023-01-19T06:09:26;17.80;;;13.10;;
12603;SDS011;6367;52.508;13.284;2023-01-19T06:11:52;16.27;;;12.77;;
12603;SDS011;6367;52.508;13.284;2023-01-19T06:14:19;20.25;;;13.27;;
12603;SDS011;6367;52.508;13.284;2023-01-19T06:16:45;16.90;;;12.40;;
12603;SDS011;6367;52.508;13.284;2023-01-19T06:19:11;18.77;;;12.17;;
12603;SDS011;6367;52.508;13.284;2023-01-19T06:21:36;19.00;;;13.40;;
12603;SDS011;6367;52.508;13.284;2023-01-19T06:24:02;17.10;;;12.40;;
12603;SDS011;6367;52.508;13.284;2023-01-19T06:26:28;16.90;;;12.00;;
12603;SDS011;6367;52.508;13.284;2023-01-19T06:28:53;21.03;;;11.77;;
12603;SDS011;6367;52.508;13.284;2023-01-19T06:31:19;18.53;;;12.60;;
12603;SDS011;6367;52.508;13.284;2023-01-19T06:33:45;16.73;;;12.70;;
12603;SDS011;6367;52.508;13.284;2023-01-19T06:36:11;19.07;;;12.07;;
12603;SDS011;6367;52.508;13.284;2023-01-19T06:38:36;17.57;;;11.17;;
12603;SDS011;6367;52.508;13.284;2023-01-19T06:41:02;18.13;;;12.60;;
12603;SDS011;6367;52.508;13.284;2023-01-19T06:43:28;16.50;;;11.38;;
12603;SDS011;6367;52.508;13.284;2023-01-19T06:45:55;19.20;;;12.18;;
12603;SDS011;6367;52.508;13.284;2023-01-19T06:48:21;16.10;;;12.23;;
12603;SDS011;6367;52.508;13.284;2023-01-19T06:50:47;18.55;;;11.65;;
12603;SDS011;6367;52.508;13.284;2023-01-19T06:53:14;16.88;;;11.80;;
12603;SDS011;6367;52.508;13.284;2023-01-19T06:55:43;14.40;;;10.52;;
12603;SDS011;6367;52.508;13.284;2023-01-19T06:58:09;18.05;;;11.55;;
12603;SDS011;6367;52.508;13.284;2023-01-19T07:00:35;20.63;;;12.47;;
12603;SDS011;6367;52.508;13.284;2023-01-19T07:03:01;16.00;;;11.70;;
12603;SDS011;6367;52.508;13.284;2023-01-19T07:05:27;17.37;;;12.27;;
12603;SDS011;6367;52.508;13.284;2023-01-19T07:07:55;16.77;;;11.30;;
12603;SDS011;6367;52.508;13.284;2023-01-19T07:10:21;24.35;;;12.90;;
12603;SDS011;6367;52.508;13.284;2023-01-19T07:12:48;17.48;;;10.95;;
12603;SDS011;6367;52.508;13.284;2023-01-19T07:15:14;15.77;;;11.68;;
12603;SDS011;6367;52.508;13.284;2023-01-19T07:17:42;16.60;;;11.65;;
12603;SDS011;6367;52.508;13.284;2023-01-19T07:20:08;20.08;;;10.93;;
12603;SDS011;6367;52.508;13.284;2023-01-19T07:22:38;15.27;;;10.82;;
12603;SDS011;6367;52.508;13.284;2023-01-19T07:25:08;16.00;;;12.07;;
12603;SDS011;6367;52.508;13.284;2023-01-19T07:27:33;20.98;;;11.10;;
12603;SDS011;6367;52.508;13.284;2023-01-19T07:29:59;14.80;;;11.00;;
12603;SDS011;6367;52.508;13.284;2023-01-19T07:32:26;12.13;;;10.17;;
12603;SDS011;6367;52.508;13.284;2023-01-19T07:34:52;12.32;;;9.70;;
12603;SDS011;6367;52.508;13.284;2023-01-19T07:37:18;17.03;;;11.47;;
12603;SDS011;6367;52.508;13.284;2023-01-19T07:39:44;15.90;;;10.43;;
12603;SDS011;6367;52.508;13.284;2023-01-19T07:42:10;14.23;;;10.13;;
12603;SDS011;6367;52.508;13.284;2023-01-19T07:44:36;17.10;;;10.75;;
12603;SDS011;6367;52.508;13.284;2023-01-19T07:47:02;17.50;;;11.20;;
12603;SDS011;6367;52.508;13.284;2023-01-19T07:49:31;17.50;;;11.40;;
12603;SDS011;6367;52.508;13.284;2023-01-19T07:51:57;15.23;;;10.10;;
12603;SDS011;6367;52.508;13.284;2023-01-19T07:54:22;16.37;;;10.30;;
12603;SDS011;6367;52.508;13.284;2023-01-19T07:56:48;15.67;;;10.80;;
12603;SDS011;6367;52.508;13.284;2023-01-19T07:59:13;17.87;;;10.33;;
12603;SDS011;6367;52.508;13.284;2023-01-19T08:01:39;13.57;;;10.50;;
12603;SDS011;6367;52.508;13.284;2023-01-19T08:04:05;17.00;;;11.37;;
12603;SDS011;6367;52.508;13.284;2023-01-19T08:06:35;16.43;;;11.30;;
12603;SDS011;6367;52.508;13.284;2023-01-19T08:09:02;14.18;;;10.82;;
12603;SDS011;6367;52.508;13.284;2023-01-19T08:11:31;17.33;;;11.27;;
12603;SDS011;6367;52.508;13.284;2023-01-19T08:13:57;16.75;;;11.63;;
12603;SDS011;6367;52.508;13.284;2023-01-19T08:16:24;14.85;;;10.20;;
12603;SDS011;6367;52.508;13.284;2023-01-19T08:18:49;14.50;;;9.67;;
12603;SDS011;6367;52.508;13.284;2023-01-19T08:21:15;13.87;;;10.53;;
12603;SDS011;6367;52.508;13.284;2023-01-19T08:23:41;13.87;;;10.60;;
12603;SDS011;6367;52.508;13.284;2023-01-19T08:26:20;13.37;;;10.20;;
12603;SDS011;6367;52.508;13.284;2023-01-19T08:28:53;16.60;;;9.93;;
12603;SDS011;6367;52.508;13.284;2023-01-19T08:31:20;12.45;;;9.70;;
12603;SDS011;6367;52.508;13.284;2023-01-19T08:33:46;12.23;;;9.83;;
12603;SDS011;6367;52.508;13.284;2023-01-19T08:36:11;13.70;;;9.50;;
12603;SDS011;6367;52.508;13.284;2023-01-19T08:38:37;12.93;;;9.70;;
12603;SDS011;6367;52.508;13.284;2023-01-19T08:41:07;15.05;;;10.35;;
12603;SDS011;6367;52.508;13.284;2023-01-19T08:43:33;14.00;;;9.73;;
12603;SDS011;6367;52.508;13.284;2023-01-19T08:45:58;13.23;;;10.43;;
12603;SDS011;6367;52.508;13.284;2023-01-19T08:48:24;14.40;;;9.40;;
12603;SDS011;6367;52.508;13.284;2023-01-19T08:50:50;15.67;;;9.63;;
12603;SDS011;6367;52.508;13.284;2023-01-19T08:53:17;10.68;;;9.13;;
12603;SDS011;6367;52.508;13.284;2023-01-19T08:55:45;14.77;;;9.13;;
12603;SDS011;6367;52.508;13.284;2023-01-19T08:58:11;10.68;;;8.18;;
12603;SDS011;6367;52.508;13.284;2023-01-19T09:00:37;12.80;;;8.97;;
12603;SDS011;6367;52.508;13.284;2023-01-19T09:03:04;13.80;;;9.07;;
12603;SDS011;6367;52.508;13.284;2023-01-19T09:05:31;11.77;;;8.82;;
12603;SDS011;6367;52.508;13.284;2023-01-19T09:08:05;13.00;;;8.75;;
12603;SDS011;6367;52.508;13.284;2023-01-19T09:10:33;9.43;;;8.00;;
12603;SDS011;6367;52.508;13.284;2023-01-19T09:13:09;10.50;;;8.38;;
12603;SDS011;6367;52.508;13.284;2023-01-19T09:15:37;12.93;;;8.40;;
12603;SDS011;6367;52.508;13.284;2023-01-19T09:18:04;12.32;;;8.75;;
12603;SDS011;6367;52.508;13.284;2023-01-19T09:20:31;12.52;;;8.45;;
12603;SDS011;6367;52.508;13.284;2023-01-19T09:22:58;9.63;;;7.00;;
12603;SDS011;6367;52.508;13.284;2023-01-19T09:25:24;12.97;;;8.37;;
12603;SDS011;6367;52.508;13.284;2023-01-19T09:27:50;10.80;;;7.90;;
12603;SDS011;6367;52.508;13.284;2023-01-19T09:30:17;15.48;;;8.90;;
12603;SDS011;6367;52.508;13.284;2023-01-19T09:32:43;13.77;;;7.78;;
12603;SDS011;6367;52.508;13.284;2023-01-19T09:35:09;8.53;;;7.53;;
12603;SDS011;6367;52.508;13.284;2023-01-19T09:37:35;12.13;;;7.35;;
12603;SDS011;6367;52.508;13.284;2023-01-19T09:40:01;11.80;;;8.30;;
12603;SDS011;6367;52.508;13.284;2023-01-19T09:42:41;12.73;;;8.02;;
12603;SDS011;6367;52.508;13.284;2023-01-19T09:45:30;11.13;;;8.27;;
12603;SDS011;6367;52.508;13.284;2023-01-19T09:48:04;11.20;;;8.25;;
12603;SDS011;6367;52.508;13.284;2023-01-19T09:50:44;12.75;;;8.02;;
12603;SDS011;6367;52.508;13.284;2023-01-19T09:53:18;9.85;;;7.65;;
12603;SDS011;6367;52.508;13.284;2023-01-19T09:55:50;12.18;;;7.13;;
12603;SDS011;6367;52.508;13.284;2023-01-19T09:58:16;10.47;;;8.13;;
12603;SDS011;6367;52.508;13.284;2023-01-19T10:00:45;12.00;;;6.80;;
12603;SDS011;6367;52.508;13.284;2023-01-19T10:03:18;9.60;;;8.03;;
12603;SDS011;6367;52.508;13.284;2023-01-19T10:05:50;8.40;;;7.05;;
12603;SDS011;6367;52.508;13.284;2023-01-19T10:08:29;7.60;;;6.47;;
12603;SDS011;6367;52.508;13.284;2023-01-19T10:10:57;8.23;;;6.90;;
12603;SDS011;6367;52.508;13.284;2023-01-19T10:16:02;9.20;;;7.30;;
12603;SDS011;6367;52.508;13.284;2023-01-19T10:21:27;9.23;;;7.20;;
12603;SDS011;6367;52.508;13.284;2023-01-19T10:29:21;8.40;;;7.03;;
12603;SDS011;6367;52.508;13.284;2023-01-19T10:34:30;8.70;;;6.77;;
12603;SDS011;6367;52.508;13.284;2023-01-19T10:39:54;11.37;;;7.50;;
12603;SDS011;6367;52.508;13.284;2023-01-19T10:42:37;8.00;;;6.97;;
12603;SDS011;6367;52.508;13.284;2023-01-19T10:47:43;8.70;;;6.60;;
12603;SDS011;6367;52.508;13.284;2023-01-19T10:53:16;9.07;;;7.03;;
12603;SDS011;6367;52.508;13.284;2023-01-19T10:55:46;9.20;;;7.00;;
12603;SDS011;6367;52.508;13.284;2023-01-19T10:58:28;9.17;;;6.80;;
12603;SDS011;6367;52.508;13.284;2023-01-19T11:00:54;10.50;;;7.00;;
12603;SDS011;6367;52.508;13.284;2023-01-19T11:03:37;10.37;;;7.47;;
12603;SDS011;6367;52.508;13.284;2023-01-19T11:08:41;9.03;;;6.80;;
12603;SDS011;6367;52.508;13.284;2023-01-19T11:11:08;7.83;;;6.93;;
12603;SDS011;6367;52.508;13.284;2023-01-19T11:13:36;15.57;;;7.23;;
12603;SDS011;6367;52.508;13.284;2023-01-19T11:18:34;8.00;;;7.10;;
12603;SDS011;6367;52.508;13.284;2023-01-19T11:21:05;9.20;;;7.23;;
12603;SDS011;6367;52.508;13.284;2023-01-19T11:26:24;9.97;;;7.70;;
12603;SDS011;6367;52.508;13.284;2023-01-19T11:29:21;9.57;;;7.80;;
12603;SDS011;6367;52.508;13.284;2023-01-19T11:31:49;14.23;;;7.27;;
12603;SDS011;6367;52.508;13.284;2023-01-19T11:34:32;10.97;;;7.00;;
12603;SDS011;6367;52.508;13.284;2023-01-19T11:37:07;9.43;;;8.00;;
12603;SDS011;6367;52.508;13.284;2023-01-19T11:39:57;10.00;;;6.97;;
12603;SDS011;6367;52.508;13.284;2023-01-19T11:42:24;9.63;;;7.20;;
12603;SDS011;6367;52.508;13.284;2023-01-19T11:47:30;9.67;;;7.27;;
12603;SDS011;6367;52.508;13.284;2023-01-19T11:50:28;11.10;;;7.10;;
12603;SDS011;6367;52.508;13.284;2023-01-19T11:52:55;9.00;;;7.10;;
12603;SDS011;6367;52.508;13.284;2023-01-19T11:58:16;7.60;;;6.83;;
12603;SDS011;6367;52.508;13.284;2023-01-19T12:06:40;9.17;;;5.87;;
12603;SDS011;6367;52.508;13.284;2023-01-19T12:11:43;9.63;;;7.23;;
12603;SDS011;6367;52.508;13.284;2023-01-19T12:14:24;9.30;;;7.20;;
12603;SDS011;6367;52.508;13.284;2023-01-19T12:16:56;8.83;;;7.50;;
12603;SDS011;6367;52.508;13.284;2023-01-19T12:19:39;10.20;;;8.40;;
12603;SDS011;6367;52.508;13.284;2023-01-19T12:22:14;9.73;;;7.47;;
12603;SDS011;6367;52.508;13.284;2023-01-19T12:24:46;10.70;;;8.03;;
12603;SDS011;6367;52.508;13.284;2023-01-19T12:30:17;10.87;;;7.33;;
12603;SDS011;6367;52.508;13.284;2023-01-19T12:32:51;10.20;;;7.70;;
12603;SDS011;6367;52.508;13.284;2023-01-19T12:36:01;8.60;;;6.70;;
12603;SDS011;6367;52.508;13.284;2023-01-19T12:41:17;10.97;;;7.40;;
12603;SDS011;6367;52.508;13.284;2023-01-19T12:43:44;9.83;;;7.10;;
12603;SDS011;6367;52.508;13.284;2023-01-19T12:46:32;15.43;;;7.60;;
12603;SDS011;6367;52.508;13.284;2023-01-19T12:55:39;8.87;;;7.57;;
12603;SDS011;6367;52.508;13.284;2023-01-19T13:02:49;7.20;;;6.30;;
12603;SDS011;6367;52.508;13.284;2023-01-19T13:05:18;9.47;;;6.90;;
12603;SDS011;6367;52.508;13.284;2023-01-19T13:15:51;10.53;;;7.47;;
12603;SDS011;6367;52.508;13.284;2023-01-19T13:20:51;8.97;;;6.80;;
12603;SDS011;6367;52.508;13.284;2023-01-19T13:23:24;8.97;;;7.17;;
12603;SDS011;6367;52.508;13.284;2023-01-19T13:26:11;8.60;;;7.17;;
12603;SDS011;6367;52.508;13.284;2023-01-19T13:28:40;8.00;;;7.03;;
12603;SDS011;6367;52.508;13.284;2023-01-19T13:31:07;10.77;;;7.17;;
12603;SDS011;6367;52.508;13.284;2023-01-19T13:33:41;10.50;;;7.27;;
12603;SDS011;6367;52.508;13.284;2023-01-19T13:36:31;10.13;;;8.10;;
12603;SDS011;6367;52.508;13.284;2023-01-19T13:39:02;8.17;;;7.33;;
12603;SDS011;6367;52.508;13.284;2023-01-19T13:41:34;9.60;;;7.80;;
12603;SDS011;6367;52.508;13.284;2023-01-19T13:44:12;9.07;;;7.83;;
12603;SDS011;6367;52.508;13.284;2023-01-19T13:46:48;11.37;;;6.87;;
12603;SDS011;6367;52.508;13.284;2023-01-19T13:49:16;10.60;;;8.30;;
12603;SDS011;6367;52.508;13.284;2023-01-19T13:51:43;10.73;;;8.20;;
12603;SDS011;6367;52.508;13.284;2023-01-19T13:54:15;9.97;;;8.00;;
12603;SDS011;6367;52.508;13.284;2023-01-19T13:56:45;9.43;;;6.70;;
12603;SDS011;6367;52.508;13.284;2023-01-19T13:59:14;10.27;;;8.47;;
12603;SDS011;6367;52.508;13.284;2023-01-19T14:01:48;10.13;;;7.67;;
12603;SDS011;6367;52.508;13.284;2023-01-19T14:06:53;11.27;;;8.70;;
12603;SDS011;6367;52.508;13.284;2023-01-19T14:09:26;8.40;;;7.50;;
12603;SDS011;6367;52.508;13.284;2023-01-19T14:12:06;12.50;;;8.77;;
12603;SDS011;6367;52.508;13.284;2023-01-19T14:14:35;10.07;;;7.97;;
12603;SDS011;6367;52.508;13.284;2023-01-19T14:17:00;10.37;;;7.97;;
12603;SDS011;6367;52.508;13.284;2023-01-19T14:19:27;11.27;;;8.27;;
12603;SDS011;6367;52.508;13.284;2023-01-19T14:22:02;11.53;;;8.23;;
12603;SDS011;6367;52.508;13.284;2023-01-19T14:24:29;9.70;;;7.63;;
12603;SDS011;6367;52.508;13.284;2023-01-19T14:27:18;11.10;;;9.00;;
12603;SDS011;6367;52.508;13.284;2023-01-19T14:29:50;12.90;;;7.90;;
12603;SDS011;6367;52.508;13.284;2023-01-19T14:37:28;9.10;;;7.90;;
12603;SDS011;6367;52.508;13.284;2023-01-19T14:48:01;13.63;;;9.77;;
12603;SDS011;6367;52.508;13.284;2023-01-19T14:50:39;11.47;;;8.60;;
12603;SDS011;6367;52.508;13.284;2023-01-19T14:53:12;13.33;;;10.13;;
12603;SDS011;6367;52.508;13.284;2023-01-19T14:58:11;14.00;;;10.17;;
12603;SDS011;6367;52.508;13.284;2023-01-19T15:00:39;13.27;;;9.60;;
12603;SDS011;6367;52.508;13.284;2023-01-19T15:03:05;11.50;;;9.60;;
12603;SDS011;6367;52.508;13.284;2023-01-19T15:05:31;14.23;;;10.30;;
12603;SDS011;6367;52.508;13.284;2023-01-19T15:07:57;14.47;;;10.50;;
12603;SDS011;6367;52.508;13.284;2023-01-19T15:10:23;13.73;;;11.27;;
12603;SDS011;6367;52.508;13.284;2023-01-19T15:12:50;12.50;;;10.07;;
12603;SDS011;6367;52.508;13.284;2023-01-19T15:15:22;12.10;;;9.33;;
12603;SDS011;6367;52.508;13.284;2023-01-19T15:17:52;13.50;;;9.97;;
12603;SDS011;6367;52.508;13.284;2023-01-19T15:20:19;15.17;;;10.77;;
12603;SDS011;6367;52.508;13.284;2023-01-19T15:22:46;16.10;;;11.33;;
12603;SDS011;6367;52.508;13.284;2023-01-19T15:25:20;13.20;;;11.10;;
12603;SDS011;6367;52.508;13.284;2023-01-19T15:27:50;12.77;;;9.27;;
12603;SDS011;6367;52.508;13.284;2023-01-19T15:30:22;15.10;;;10.30;;
12603;SDS011;6367;52.508;13.284;2023-01-19T15:32:52;14.20;;;10.80;;
12603;SDS011;6367;52.508;13.284;2023-01-19T15:35:19;15.03;;;10.10;;
12603;SDS011;6367;52.508;13.284;2023-01-19T15:37:46;13.37;;;9.60;;
12603;SDS011;6367;52.508;13.284;2023-01-19T15:40:13;16.03;;;11.50;;
12603;SDS011;6367;52.508;13.284;2023-01-19T15:42:39;14.17;;;10.90;;
12603;SDS011;6367;52.508;13.284;2023-01-19T15:45:30;14.20;;;11.37;;
12603;SDS011;6367;52.508;13.284;2023-01-19T15:47:55;15.20;;;11.00;;
12603;SDS011;6367;52.508;13.284;2023-01-19T15:50:21;13.20;;;9.80;;
12603;SDS011;6367;52.508;13.284;2023-01-19T15:52:47;13.90;;;9.90;;
12603;SDS011;6367;52.508;13.284;2023-01-19T15:55:13;16.90;;;11.10;;
12603;SDS011;6367;52.508;13.284;2023-01-19T15:57:39;13.43;;;10.50;;
12603;SDS011;6367;52.508;13.284;2023-01-19T16:00:05;13.43;;;11.10;;
12603;SDS011;6367;52.508;13.284;2023-01-19T16:02:32;12.77;;;10.40;;
12603;SDS011;6367;52.508;13.284;2023-01-19T16:04:58;14.37;;;10.60;;
12603;SDS011;6367;52.508;13.284;2023-01-19T16:07:23;13.83;;;11.40;;
12603;SDS011;6367;52.508;13.284;2023-01-19T16:09:49;11.13;;;9.53;;
12603;SDS011;6367;52.508;13.284;2023-01-19T16:12:14;13.87;;;11.20;;
12603;SDS011;6367;52.508;13.284;2023-01-19T16:14:40;17.67;;;11.07;;
12603;SDS011;6367;52.508;13.284;2023-01-19T16:17:06;12.30;;;10.43;;
12603;SDS011;6367;52.508;13.284;2023-01-19T16:19:31;13.23;;;10.60;;
12603;SDS011;6367;52.508;13.284;2023-01-19T16:21:57;18.83;;;10.80;;
12603;SDS011;6367;52.508;13.284;2023-01-19T16:24:23;13.97;;;11.07;;
12603;SDS011;6367;52.508;13.284;2023-01-19T16:26:48;13.53;;;10.20;;